createdAt,value
2018-06-12T00:00:03.466Z,42.76
2018-06-12T00:05:02.917Z,41.99
2018-06-12T00:10:03.604Z,41.89
2018-06-12T00:15:03.200Z,41.2
2018-06-12T00:20:02.901Z,39.86
2018-06-12T00:25:03.484Z,39.77
2018-06-12T00:30:03.128Z,38.91
2018-06-12T00:35:03.736Z,38.24
2018-06-12T00:40:03.388Z,37.48
2018-06-12T00:45:03.052Z,36.9
2018-06-12T00:50:03.650Z,36.41
2018-06-12T00:55:03.444Z,35.93
2018-06-12T01:00:03.158Z,34.3
2018-06-12T01:05:02.835Z,33.44
2018-06-12T01:10:03.545Z,32.68
2018-06-12T01:15:03.119Z,31.63
2018-06-12T01:20:03.707Z,30.67
2018-06-12T01:25:03.326Z,29.81
2018-06-12T01:30:03.273Z,29.43
2018-06-12T01:35:02.934Z,29.14
2018-06-12T01:40:03.770Z,28.76
2018-06-12T01:45:03.365Z,28.66
2018-06-12T01:50:03.045Z,28
2018-06-12T01:55:03.853Z,27.04
2018-06-12T02:00:03.524Z,26.56
2018-06-12T02:05:03.143Z,26.66
2018-06-12T02:10:02.853Z,27.04
2018-06-12T02:15:03.464Z,27.42
2018-06-12T02:20:03.021Z,27.52
2018-06-12T02:25:03.863Z,27.71
2018-06-12T02:30:03.540Z,27.8
2018-06-12T02:35:03.203Z,28
2018-06-12T02:40:02.831Z,28.27
2018-06-12T02:45:03.634Z,28.36
2018-06-12T02:50:03.270Z,28.55
2018-06-12T02:55:02.853Z,28.65
2018-06-12T03:00:03.672Z,28.65
2018-06-12T03:05:03.260Z,28.65
2018-06-12T03:10:02.994Z,28.36
2018-06-12T03:15:03.589Z,28.17
2018-06-12T03:20:03.258Z,28.16
2018-06-12T03:25:02.911Z,28.06
2018-06-12T03:30:03.529Z,27.78
2018-06-12T03:35:03.235Z,27.49
2018-06-12T03:40:03.075Z,27.11
2018-06-12T03:45:03.685Z,26.63
2018-06-12T03:50:03.313Z,26.44
2018-06-12T03:55:03.040Z,26.15
2018-06-12T04:00:03.689Z,25.87
2018-06-12T04:05:03.310Z,25.87
2018-06-12T04:10:02.925Z,25.58
2018-06-12T04:15:04.105Z,25.49
2018-06-12T04:20:03.137Z,25.77
2018-06-12T04:25:02.822Z,26.55
2018-06-12T04:30:03.740Z,26.74
2018-06-12T04:35:03.348Z,27.12
2018-06-12T04:40:02.988Z,27.7
2018-06-12T04:45:03.582Z,29.03
2018-06-12T04:50:03.206Z,29.89
2018-06-12T04:55:02.736Z,30.37
2018-06-12T05:00:03.354Z,31.04
2018-06-12T05:05:02.961Z,32.18
2018-06-12T05:10:03.626Z,32.97
2018-06-12T05:15:03.231Z,34.11
2018-06-12T05:20:03.381Z,34.69
2018-06-12T05:25:02.981Z,34.3
2018-06-12T05:30:03.628Z,36.8
2018-06-12T05:35:03.326Z,37.95
2018-06-12T05:40:03.045Z,39.96
2018-06-12T05:45:03.659Z,41.01
2018-06-12T05:50:03.237Z,41.68
2018-06-12T05:55:02.904Z,43.02
2018-06-12T06:00:03.953Z,44.36
2018-06-12T06:05:03.599Z,45.81
2018-06-12T06:10:03.234Z,47.73
2018-06-12T06:15:02.937Z,49.45
2018-06-12T06:20:03.566Z,53.08
2018-06-12T06:25:03.164Z,53.85
2018-06-12T06:30:03.761Z,54.71
2018-06-12T06:35:03.444Z,56.08
2018-06-12T06:40:03.128Z,57.04
2018-06-12T06:45:03.755Z,59.05
2018-06-12T06:50:03.358Z,61.15
2018-06-12T06:55:02.948Z,61.94
2018-06-12T07:00:03.886Z,63.96
2018-06-12T07:05:03.604Z,64.92
2018-06-12T07:10:03.241Z,64.63
2018-06-12T07:15:03.369Z,66.74
2018-06-12T07:20:03.111Z,68.36
2018-06-12T07:25:03.906Z,69.99
2018-06-12T07:30:03.652Z,74.24
2018-06-12T07:35:03.289Z,74.62
2018-06-12T07:40:02.954Z,76.15
2018-06-12T07:45:03.645Z,78.88
2018-06-12T07:50:03.259Z,80.99
2018-06-12T07:55:03.255Z,84.34
2018-06-12T08:00:02.952Z,87.74
2018-06-12T08:05:03.632Z,90.75
2018-06-12T08:10:03.288Z,94.26
2018-06-12T08:15:02.913Z,98.24
2018-06-12T08:20:03.651Z,99.99
2018-06-12T08:25:03.283Z,99.99
2018-06-12T08:30:04.561Z,99.99
2018-06-12T08:35:03.250Z,99.99
2018-06-12T08:40:02.953Z,99.99
2018-06-12T08:45:03.674Z,99.99
2018-06-12T08:50:03.314Z,99.99
2018-06-12T08:55:02.934Z,99.99
2018-06-12T09:00:03.600Z,99.99
2018-06-12T09:05:03.370Z,99.99
2018-06-12T09:10:03.085Z,99.99
2018-06-12T09:15:03.720Z,99.99
2018-06-12T09:20:03.385Z,99.99
2018-06-12T09:25:03.158Z,99.99
2018-06-12T09:30:02.860Z,99.99
2018-06-12T09:35:03.570Z,99.99
2018-06-12T09:40:03.188Z,99.99
2018-06-12T09:45:03.811Z,99.99
2018-06-12T09:50:03.470Z,99.99
2018-06-12T09:55:03.082Z,99.99
2018-06-12T10:00:03.839Z,99.99
2018-06-12T10:05:03.788Z,99.99
2018-06-12T10:10:03.496Z,99.99
2018-06-12T10:15:03.105Z,99.99
2018-06-12T10:20:03.741Z,99.99
2018-06-12T10:25:03.882Z,99.99
2018-06-12T10:30:03.585Z,99.99
2018-06-12T10:35:03.300Z,99.99
2018-06-12T10:40:03.020Z,99.99
2018-06-12T10:45:03.712Z,99.99
2018-06-12T10:50:03.797Z,99.99
2018-06-12T10:55:03.488Z,99.99
2018-06-12T11:00:03.046Z,99.99
2018-06-12T11:05:03.643Z,99.99
2018-06-12T11:10:03.295Z,99.99
2018-06-12T11:15:02.950Z,99.99
2018-06-12T11:20:03.730Z,99.99
2018-06-12T11:25:03.343Z,99.99
2018-06-12T11:30:02.988Z,99.99
2018-06-12T11:35:03.624Z,99.99
2018-06-12T11:40:03.435Z,99.99
2018-06-12T11:45:02.987Z,99.99
2018-06-12T11:50:03.656Z,99.99
2018-06-12T11:55:03.319Z,99.99
2018-06-12T12:00:02.974Z,99.99
2018-06-12T12:05:03.873Z,99.99
2018-06-12T12:10:03.570Z,99.99
2018-06-12T12:15:03.246Z,99.99
2018-06-12T12:20:02.874Z,99.99
2018-06-12T12:25:03.574Z,99.99
2018-06-12T12:30:03.186Z,99.99
2018-06-12T12:35:03.896Z,99.99
2018-06-12T12:40:03.760Z,99.99
2018-06-12T12:45:03.458Z,99.99
2018-06-12T12:50:03.141Z,99.99
2018-06-12T12:55:02.797Z,99.99
2018-06-12T13:00:03.441Z,99.99
2018-06-12T13:05:03.206Z,99.69
2018-06-12T13:10:02.840Z,98.44
2018-06-12T13:15:03.553Z,97.28
2018-06-12T13:20:03.244Z,96.61
2018-06-12T13:25:02.824Z,97.19
2018-06-12T13:30:03.475Z,96.22
2018-06-12T13:35:03.124Z,94.87
2018-06-12T13:40:02.787Z,95.25
2018-06-12T13:45:03.450Z,94.72
2018-06-12T13:50:03.098Z,93.8
2018-06-12T13:55:03.685Z,92.45
2018-06-12T14:00:03.426Z,91.35
2018-06-12T14:05:03.176Z,91.35
2018-06-12T14:10:02.839Z,91.73
2018-06-12T14:15:03.463Z,91.88
2018-06-12T14:20:03.203Z,92.65
2018-06-12T14:25:02.834Z,93.32
2018-06-12T14:30:03.494Z,94.05
2018-06-12T14:35:03.125Z,95.64
2018-06-12T14:40:02.808Z,95.64
2018-06-12T14:45:03.674Z,95.36
2018-06-12T14:50:03.337Z,96.41
2018-06-12T14:55:03.034Z,97.96
2018-06-12T15:00:03.796Z,99.79
2018-06-12T15:05:03.499Z,99.99
2018-06-12T15:10:03.164Z,99.99
2018-06-12T15:15:02.835Z,99.99
2018-06-12T15:20:03.564Z,99.99
2018-06-12T15:25:03.178Z,99.99
2018-06-12T15:30:02.791Z,99.99
2018-06-12T15:35:03.462Z,99.99
2018-06-12T15:40:03.270Z,99.99
2018-06-12T15:45:02.905Z,99.99
2018-06-12T15:50:03.555Z,99.99
2018-06-12T16:00:03.775Z,99.99
2018-06-12T16:05:03.844Z,99.99
2018-06-12T16:10:03.566Z,99.99
2018-06-12T16:15:03.157Z,99.99
2018-06-12T16:20:02.850Z,99.99
2018-06-12T16:25:03.509Z,99.99
2018-06-12T16:30:03.157Z,99.99
2018-06-12T16:35:02.866Z,99.99
2018-06-12T16:40:03.580Z,99.99
2018-06-12T16:45:03.191Z,99.99
2018-06-12T16:50:03.791Z,99.99
2018-06-12T16:55:03.555Z,99.99
2018-06-12T17:00:03.195Z,99.99
2018-06-12T17:05:02.859Z,99.99
2018-06-12T17:10:03.598Z,99.99
2018-06-12T17:15:03.287Z,99.99
2018-06-12T17:20:02.906Z,99.99
2018-06-12T17:25:03.520Z,99.99
2018-06-12T17:30:03.156Z,99.99
2018-06-12T17:35:02.820Z,99.99
2018-06-12T17:40:03.521Z,99.99
2018-06-12T17:45:03.193Z,99.99
2018-06-12T17:50:02.833Z,99.99
2018-06-12T17:55:03.724Z,99.99
2018-06-12T18:00:03.333Z,99.99
2018-06-12T18:05:03.264Z,99.99
2018-06-12T18:10:02.991Z,99.99
2018-06-12T18:15:03.656Z,99.99
2018-06-12T18:20:03.296Z,99.99
2018-06-12T18:25:03.560Z,99.99
2018-06-12T18:30:03.260Z,99.99
2018-06-12T18:35:02.931Z,99.99
2018-06-12T18:40:03.603Z,99.99
2018-06-12T18:45:03.273Z,99.99
2018-06-12T18:50:02.915Z,99.99
2018-06-12T18:55:03.571Z,99.99
2018-06-12T19:00:03.250Z,99.99
2018-06-12T19:05:02.947Z,99.99
2018-06-12T19:10:03.620Z,99.99
2018-06-12T19:15:03.244Z,99.99
2018-06-12T19:20:02.924Z,99.99
2018-06-12T19:25:03.525Z,99.99
2018-06-12T19:30:03.199Z,99.82
2018-06-12T19:35:03.018Z,99.05
2018-06-12T19:40:03.735Z,97.04
2018-06-12T19:45:03.416Z,95.98
2018-06-12T19:50:03.041Z,95.12
2018-06-12T19:55:03.807Z,94.17
2018-06-12T20:00:03.400Z,93.49
2018-06-12T20:05:03.054Z,92.82
2018-06-12T20:10:03.652Z,93.16
2018-06-12T20:15:03.273Z,93.45
2018-06-12T20:20:02.977Z,93.64
2018-06-12T20:25:03.610Z,94.69
2018-06-12T20:30:03.213Z,95.75
2018-06-12T20:35:02.890Z,96.51
2018-06-12T20:40:03.891Z,97.75
2018-06-12T20:45:03.772Z,97.28
2018-06-12T20:50:03.403Z,97.66
2018-06-12T20:55:03.011Z,97.47
2018-06-12T21:00:03.620Z,97.47
2018-06-12T21:05:03.297Z,98.05
2018-06-12T21:10:02.903Z,97.66
2018-06-12T21:15:03.516Z,97.23
2018-06-12T21:20:03.150Z,97.13
2018-06-12T21:25:03.770Z,97.13
2018-06-12T21:30:03.744Z,97.61
2018-06-12T21:35:03.340Z,97.71
2018-06-12T21:40:03.033Z,97.9
2018-06-12T21:45:03.685Z,98.19
2018-06-12T21:50:03.319Z,98.09
2018-06-12T21:55:02.973Z,98.19
2018-06-12T22:00:03.711Z,98.09
2018-06-12T22:05:03.458Z,97.61
2018-06-12T22:10:03.124Z,97.13
2018-06-12T22:15:03.725Z,96.51
2018-06-12T22:20:03.378Z,96.03
2018-06-12T22:25:02.954Z,95.27
2018-06-12T22:30:03.578Z,94.5
2018-06-12T22:35:03.253Z,93.07
2018-06-12T22:40:02.990Z,92.11
2018-06-12T22:45:03.587Z,90.67
2018-06-12T22:50:03.209Z,89.43
2018-06-12T22:55:02.814Z,86.94
2018-06-12T23:00:03.357Z,85.03
2018-06-12T23:05:03.601Z,83.31
2018-06-12T23:10:03.257Z,81.11
2018-06-12T23:15:02.887Z,79.29
2018-06-12T23:20:03.549Z,76.04
2018-06-12T23:25:03.252Z,74.51
2018-06-12T23:30:02.893Z,73.94
2018-06-12T23:35:03.505Z,73.33
2018-06-12T23:40:03.179Z,73.23
2018-06-12T23:45:02.816Z,72.85
2018-06-12T23:50:03.422Z,72.47
2018-06-12T23:55:02.990Z,72.28
